Terminal Aerodrome Forecast
Issued by NWS

Home | Current Version | Previous Version | Text Only | Print | Product List | Glossary On
Versions: 1 2 3 4 5 6 7 8 9 10 11 12 13 14 15 16
000
FTUS44 KMAF 291700
TAFINK
TAF
KINK 291732Z 2918/3018 06018G25KT P6SM SCT090 OVC250
     FM300000 06016G21KT P6SM BKN070 OVC250
     FM301000 06012KT P6SM OVC060
     FM301500 07008KT P6SM OVC050=

USA.gov is the U.S. government's official web portal to all federal, state and local government web resources and services.